首页
METAR-TAF:

METAR-TAF

机场 :

Châteaudun, 法国

纬度: 48-03N, 经度: 001-23E, 海拔: 134米

当前天气观测

该预报发布于48分钟前的01:30 UTC
风速5节,风向
温度 10°C
湿度 100%
气压 1027 hPa
能見度: 4200
少量云层高于400英尺
阴天层高于1400英尺
轻雾

METAR: LFOC 070130Z AUTO 09005KT 4200 BR FEW004 OVC014 10/10 Q1027

时间: 04:18 (02:18 UTC)

预报

该预报发布于12小时和18分钟前的14:00 UTC
预报有效从06日的 15点(UTC)到 07日的 15点(UTC)
风速10节,风向
能见度10公里或以上
阴天层高于1300英尺
短暂存在
从 06日的 17点(UTC)到 06日的 23点(UTC)
多云层高于2500英尺
多云层高于7000英尺
成为
从 07日的 01点(UTC)到 07日的 03点(UTC)
能见度10公里或以上
1500米以下无云,无积雨云
几率 40% :
短暂存在
从 07日的 05点(UTC)到 07日的 08点(UTC)
能見度: 0800

TAF: LFOC 061400Z 0615/0715 18010KT 9999 OVC013 TEMPO 0617/0623 BKN025 BKN070 BECMG 0701/0703 CAVOK PROB40 TEMPO 0705/0708 0800 FG

超过4000个机场的气象观测和天气预报(METAR&TAF报告)。

可查询的气象台以黄色和红色小点在地图上表示。

将鼠标移到小点上方,可查看气象台名称。

然后点击查看天气观测和预报。

如需切换地图:点击带黑十字的绿色按钮放大地图;点击带横线的绿色按钮缩小地图;或者点击绿色箭头查看邻近地区的地图。


METAR-TAF: